Time;durP1;ratioP1;P1;durP2;ratioP2;P2;SDS_P1;SDS_P2;PMS_P1;PMS_P2;Temp;Humidity;BMP_temperature;BMP_pressure;BME280_temperature;BME280_humidity;BME280_pressure;Samples;Min_cycle;Max_cycle;Signal;HPM_P1;HPM_P2
2020/12/07 00:00:07;;;;;;;33.92;18.90;;;4.60;93.60;;;;;;5008216;28;20319;-81
2020/12/07 00:02:34;;;;;;;32.67;18.73;;;4.60;93.80;;;;;;5009873;28;20280;-82
2020/12/07 00:05:01;;;;;;;33.92;19.75;;;4.50;93.60;;;;;;5017038;28;20201;-82
2020/12/07 00:07:28;;;;;;;33.28;20.30;;;4.50;93.50;;;;;;4989260;28;20472;-82
2020/12/07 00:09:55;;;;;;;30.35;18.17;;;4.50;93.50;;;;;;5017146;28;20196;-83
2020/12/07 00:12:25;;;;;;;33.60;19.70;;;4.50;93.60;;;;;;5018106;28;20209;-81
2020/12/07 00:14:52;;;;;;;30.90;18.08;;;4.50;93.70;;;;;;5017934;28;20189;-83
2020/12/07 00:17:20;;;;;;;34.72;19.55;;;4.60;93.80;;;;;;5017732;28;20188;-83
2020/12/07 00:19:47;;;;;;;29.00;17.20;;;4.60;93.60;;;;;;5017571;28;20214;-84
2020/12/07 00:22:19;;;;;;;35.65;19.80;;;4.60;93.50;;;;;;5017538;28;20284;-82
2020/12/07 00:24:47;;;;;;;32.60;19.23;;;4.60;93.20;;;;;;5017161;28;20198;-84
2020/12/07 00:27:13;;;;;;;30.90;18.30;;;4.60;93.20;;;;;;5015374;28;20201;-84
2020/12/07 00:29:40;;;;;;;26.63;18.40;;;4.60;93.20;;;;;;5016631;28;20233;-82
2020/12/07 00:32:06;;;;;;;29.40;19.25;;;4.60;93.30;;;;;;5008365;28;20276;-80
2020/12/07 00:34:33;;;;;;;31.60;18.98;;;4.60;93.60;;;;;;5003324;28;20272;-79
2020/12/07 00:36:59;;;;;;;37.20;20.35;;;4.60;93.60;;;;;;5006430;28;20210;-83
2020/12/07 00:39:25;;;;;;;31.95;19.40;;;4.60;93.90;;;;;;5005835;28;20232;-82
2020/12/07 00:41:57;;;;;;;34.17;20.35;;;4.60;94.10;;;;;;5002132;28;20202;-80
2020/12/07 00:44:23;;;;;;;35.47;19.67;;;4.60;94.20;;;;;;5005734;28;20243;-81
2020/12/07 00:46:50;;;;;;;36.47;20.95;;;4.50;94.20;;;;;;5005065;28;20304;-81
2020/12/07 00:49:16;;;;;;;31.52;19.70;;;4.50;94.40;;;;;;5000828;28;20205;-79
2020/12/07 00:51:43;;;;;;;37.10;20.58;;;4.50;94.90;;;;;;4999111;28;20236;-80
2020/12/07 00:54:09;;;;;;;37.72;22.17;;;4.50;94.90;;;;;;4999196;28;20245;-81
2020/12/07 00:56:36;;;;;;;34.15;23.52;;;4.50;95.00;;;;;;4999283;28;20633;-79
2020/12/07 00:59:04;;;;;;;31.10;20.83;;;4.50;95.40;;;;;;4999665;28;20231;-80
2020/12/07 01:01:30;;;;;;;34.20;20.70;;;4.40;95.80;;;;;;5006808;28;20205;-81
2020/12/07 01:03:56;;;;;;;35.63;22.73;;;4.40;96.20;;;;;;5005328;28;20247;-81
2020/12/07 01:06:28;;;;;;;39.47;22.33;;;4.30;96.70;;;;;;5010283;28;20185;-83
2020/12/07 01:08:54;;;;;;;38.55;22.70;;;4.30;96.70;;;;;;5015308;28;20270;-81
2020/12/07 01:11:21;;;;;;;41.42;23.80;;;4.30;97.30;;;;;;5011947;28;20232;-80
2020/12/07 01:13:48;;;;;;;42.38;23.77;;;4.30;97.80;;;;;;5006227;28;20254;-80
2020/12/07 01:16:20;;;;;;;39.72;22.95;;;4.40;98.10;;;;;;5007043;28;20670;-80
2020/12/07 01:18:47;;;;;;;38.25;24.65;;;4.40;98.20;;;;;;5003729;28;20208;-80
2020/12/07 01:21:15;;;;;;;41.60;24.23;;;4.40;98.20;;;;;;5000642;28;20252;-81
2020/12/07 01:23:41;;;;;;;43.60;24.10;;;4.30;98.30;;;;;;4998829;28;20298;-81
2020/12/07 01:26:09;;;;;;;44.05;23.75;;;4.30;98.50;;;;;;4999880;28;20226;-80
2020/12/07 01:28:36;;;;;;;44.55;24.17;;;4.30;98.60;;;;;;4999093;28;20213;-80
2020/12/07 01:31:02;;;;;;;38.15;24.02;;;4.40;98.70;;;;;;4999404;28;20200;-79
2020/12/07 01:33:30;;;;;;;47.15;24.27;;;4.30;98.60;;;;;;4998512;28;20251;-79
2020/12/07 01:35:57;;;;;;;42.03;24.15;;;4.30;98.60;;;;;;4998750;28;20212;-79
2020/12/07 01:38:25;;;;;;;37.53;23.65;;;4.40;98.70;;;;;;5001047;28;20284;-79
2020/12/07 01:40:51;;;;;;;39.58;23.30;;;4.40;98.70;;;;;;5001783;28;20275;-80
2020/12/07 01:43:19;;;;;;;34.40;21.00;;;4.40;98.70;;;;;;5002783;28;20340;-80
2020/12/07 01:45:45;;;;;;;37.55;23.52;;;4.40;98.50;;;;;;5001378;28;20244;-79
2020/12/07 01:48:12;;;;;;;37.78;22.88;;;4.50;98.60;;;;;;5003134;28;20247;-80
2020/12/07 01:50:41;;;;;;;40.80;24.45;;;4.50;98.70;;;;;;5003314;28;20207;-79
2020/12/07 01:53:07;;;;;;;37.88;22.77;;;4.40;98.40;;;;;;5005074;28;20260;-81
2020/12/07 01:55:34;;;;;;;40.20;22.75;;;4.40;98.40;;;;;;5004158;28;20213;-79
2020/12/07 01:58:01;;;;;;;37.58;23.13;;;4.50;98.50;;;;;;5005000;28;20210;-81
2020/12/07 02:00:27;;;;;;;38.55;22.65;;;4.50;98.30;;;;;;5014776;28;20226;-84
2020/12/07 02:02:54;;;;;;;36.05;20.33;;;4.60;98.10;;;;;;5018618;28;20230;-80
2020/12/07 02:05:21;;;;;;;36.33;21.70;;;4.60;98.00;;;;;;5020564;28;20229;-82
2020/12/07 02:07:50;;;;;;;35.05;20.65;;;4.60;97.90;;;;;;5021018;28;20258;-81
2020/12/07 02:10:17;;;;;;;33.05;20.88;;;4.60;97.70;;;;;;5019783;28;20201;-80
2020/12/07 02:12:44;;;;;;;33.03;20.23;;;4.60;97.40;;;;;;5020240;28;20213;-81
2020/12/07 02:15:10;;;;;;;38.45;21.67;;;4.60;97.20;;;;;;5020943;28;20200;-82
2020/12/07 02:17:36;;;;;;;36.28;20.42;;;4.60;97.30;;;;;;5021315;28;20291;-79
2020/12/07 02:20:04;;;;;;;26.55;17.95;;;4.60;97.30;;;;;;5013609;28;20244;-79
2020/12/07 02:22:30;;;;;;;25.35;17.00;;;4.60;97.20;;;;;;5011403;28;20225;-80
2020/12/07 02:24:57;;;;;;;24.65;16.60;;;4.60;97.10;;;;;;5011499;28;20209;-81
2020/12/07 02:27:24;;;;;;;22.30;14.98;;;4.60;96.90;;;;;;5010068;28;20218;-79
2020/12/07 02:29:50;;;;;;;20.05;13.48;;;4.60;96.80;;;;;;5012807;28;20276;-80
2020/12/07 02:32:17;;;;;;;18.75;13.35;;;4.60;96.50;;;;;;5014147;28;20229;-79
2020/12/07 02:34:44;;;;;;;17.27;11.52;;;4.60;95.70;;;;;;5013623;28;20217;-79
2020/12/07 02:37:13;;;;;;;17.98;12.30;;;4.60;95.20;;;;;;5012001;28;20217;-81
2020/12/07 02:39:40;;;;;;;15.48;11.02;;;4.60;94.80;;;;;;5012390;28;20658;-79
2020/12/07 02:42:07;;;;;;;12.77;9.95;;;4.60;94.30;;;;;;5011610;28;20208;-79
2020/12/07 02:44:35;;;;;;;11.60;9.48;;;4.60;94.20;;;;;;5009805;28;20205;-80
2020/12/07 02:47:01;;;;;;;11.68;8.05;;;4.60;93.30;;;;;;5007083;28;20209;-80
2020/12/07 02:49:28;;;;;;;10.85;7.90;;;4.60;93.20;;;;;;5011726;28;20232;-80
2020/12/07 02:51:55;;;;;;;9.70;7.25;;;4.60;92.90;;;;;;5011959;28;20204;-80
2020/12/07 02:54:24;;;;;;;7.03;5.80;;;4.60;92.60;;;;;;5011483;28;20204;-81
2020/12/07 02:56:51;;;;;;;9.43;6.80;;;4.60;92.20;;;;;;5013751;28;20279;-80
2020/12/07 02:59:18;;;;;;;8.57;6.15;;;4.60;92.20;;;;;;5014281;28;20221;-82
2020/12/07 03:01:49;;;;;;;11.93;5.68;;;4.60;91.70;;;;;;5011800;28;20212;-80
2020/12/07 03:04:15;;;;;;;6.95;5.47;;;4.60;91.50;;;;;;5012175;28;20806;-79
2020/12/07 03:06:42;;;;;;;6.93;5.38;;;4.60;91.10;;;;;;5012983;28;20193;-81
2020/12/07 03:09:08;;;;;;;10.48;7.10;;;4.60;91.10;;;;;;5013619;28;20207;-80
2020/12/07 03:11:36;;;;;;;6.90;5.35;;;4.60;91.10;;;;;;5014063;28;20216;-79
2020/12/07 03:14:02;;;;;;;7.95;5.68;;;4.60;91.00;;;;;;5012952;28;20225;-81
2020/12/07 03:16:29;;;;;;;7.65;6.78;;;4.60;91.00;;;;;;5009663;28;20209;-81
2020/12/07 03:18:56;;;;;;;8.35;6.13;;;4.60;91.00;;;;;;5010877;28;20240;-80
2020/12/07 03:21:23;;;;;;;11.85;8.00;;;4.60;91.10;;;;;;5014604;28;20237;-80
2020/12/07 03:23:49;;;;;;;11.02;8.02;;;4.60;91.30;;;;;;5013399;28;20224;-81
2020/12/07 03:26:16;;;;;;;11.30;7.72;;;4.50;91.40;;;;;;5011257;28;20696;-81
2020/12/07 03:28:44;;;;;;;12.23;8.50;;;4.50;91.70;;;;;;5008850;28;20241;-79
2020/12/07 03:31:11;;;;;;;12.55;9.15;;;4.50;91.80;;;;;;5008337;28;20259;-80
2020/12/07 03:33:38;;;;;;;12.10;8.93;;;4.50;92.00;;;;;;5005673;28;20231;-79
2020/12/07 03:36:05;;;;;;;13.52;9.30;;;4.50;92.30;;;;;;5009070;28;20212;-79
2020/12/07 03:38:32;;;;;;;13.18;9.02;;;4.50;92.30;;;;;;5009536;28;20202;-80
2020/12/07 03:40:59;;;;;;;12.95;8.77;;;4.50;92.50;;;;;;5010980;28;20313;-79
2020/12/07 03:43:25;;;;;;;17.55;10.43;;;4.50;92.80;;;;;;5013363;28;20271;-79
2020/12/07 03:45:53;;;;;;;15.07;10.23;;;4.60;92.90;;;;;;5011259;28;20212;-80
2020/12/07 03:48:20;;;;;;;16.98;9.55;;;4.60;93.20;;;;;;5002734;28;20306;-80
2020/12/07 03:50:47;;;;;;;18.25;10.40;;;4.60;93.10;;;;;;5002477;28;20235;-80
2020/12/07 03:53:16;;;;;;;19.98;11.40;;;4.50;93.20;;;;;;5003263;28;20259;-79
2020/12/07 03:55:43;;;;;;;18.02;12.18;;;4.50;93.20;;;;;;5012364;28;20208;-79
2020/12/07 03:58:10;;;;;;;21.10;13.00;;;4.60;93.20;;;;;;5014335;28;20212;-81
2020/12/07 04:00:37;;;;;;;20.85;12.73;;;4.60;93.20;;;;;;5015620;28;20238;-81
2020/12/07 04:03:07;;;;;;;22.80;14.40;;;4.60;93.30;;;;;;5009664;28;20233;-80
2020/12/07 04:05:37;;;;;;;19.88;12.43;;;4.60;93.40;;;;;;5005702;28;20205;-78
2020/12/07 04:08:04;;;;;;;20.83;12.75;;;4.60;93.90;;;;;;5008890;28;20225;-80
2020/12/07 04:10:31;;;;;;;20.08;12.43;;;4.50;94.30;;;;;;5010368;28;20204;-80
2020/12/07 04:12:58;;;;;;;22.00;12.98;;;4.60;94.20;;;;;;5008064;28;20260;-81
2020/12/07 04:15:24;;;;;;;21.95;13.50;;;4.60;94.20;;;;;;5008156;28;20251;-80
2020/12/07 04:17:51;;;;;;;23.33;14.00;;;4.60;94.30;;;;;;5011032;28;20217;-80
2020/12/07 04:20:18;;;;;;;18.73;13.52;;;4.60;94.40;;;;;;5011023;28;20257;-85
2020/12/07 04:22:44;;;;;;;20.42;13.30;;;4.70;94.50;;;;;;5011389;28;20216;-80
2020/12/07 04:25:11;;;;;;;21.48;12.70;;;4.70;94.30;;;;;;5003546;28;20212;-80
2020/12/07 04:27:37;;;;;;;24.08;13.35;;;4.70;94.20;;;;;;5003804;28;20225;-81
2020/12/07 04:30:05;;;;;;;19.60;12.30;;;4.70;94.10;;;;;;5005398;28;20622;-81
2020/12/07 04:32:32;;;;;;;18.83;12.73;;;4.70;94.30;;;;;;5003757;28;20220;-80
2020/12/07 04:34:59;;;;;;;17.20;12.45;;;4.70;94.10;;;;;;5003512;28;20290;-79
2020/12/07 04:37:27;;;;;;;22.27;12.40;;;4.70;93.70;;;;;;5004917;28;20216;-80
2020/12/07 04:39:53;;;;;;;19.90;11.68;;;4.70;93.30;;;;;;5010387;28;20245;-81
2020/12/07 04:42:20;;;;;;;20.33;12.00;;;4.80;93.30;;;;;;5015545;28;20222;-80
2020/12/07 04:44:47;;;;;;;19.40;11.60;;;4.70;93.30;;;;;;5014556;28;20209;-81
2020/12/07 04:47:18;;;;;;;19.73;12.10;;;4.70;93.30;;;;;;5003996;28;20206;-80
2020/12/07 04:49:45;;;;;;;17.63;11.23;;;4.70;93.30;;;;;;5002711;28;20189;-80
2020/12/07 04:52:13;;;;;;;16.95;11.68;;;4.80;93.20;;;;;;5002973;28;20244;-80
2020/12/07 04:54:42;;;;;;;19.45;11.40;;;4.80;92.70;;;;;;5016735;28;20189;-81
2020/12/07 04:57:10;;;;;;;15.55;10.63;;;4.80;92.60;;;;;;5015859;28;20214;-81
2020/12/07 04:59:40;;;;;;;19.23;12.00;;;4.80;92.40;;;;;;5016574;28;20301;-82
2020/12/07 05:02:06;;;;;;;19.40;11.77;;;4.70;92.60;;;;;;5016718;28;20217;-83
2020/12/07 05:04:33;;;;;;;20.45;12.52;;;4.70;92.70;;;;;;5012363;28;20248;-81
2020/12/07 05:07:01;;;;;;;21.58;11.57;;;4.70;92.80;;;;;;5006444;28;20233;-81
2020/12/07 05:09:29;;;;;;;18.33;11.02;;;4.70;93.30;;;;;;5006519;28;20205;-80
2020/12/07 05:11:59;;;;;;;18.88;11.35;;;4.80;93.30;;;;;;5004905;28;20228;-79
2020/12/07 05:14:25;;;;;;;18.05;11.63;;;4.80;93.20;;;;;;5006121;28;20610;-80
2020/12/07 05:16:52;;;;;;;19.65;13.13;;;4.80;93.00;;;;;;5006713;28;20205;-80
2020/12/07 05:19:21;;;;;;;23.38;13.73;;;4.80;93.00;;;;;;5005685;28;20624;-79
2020/12/07 05:21:48;;;;;;;19.80;13.10;;;4.80;93.30;;;;;;5004971;28;20228;-79
2020/12/07 05:24:15;;;;;;;20.85;13.82;;;4.90;93.00;;;;;;5006779;28;20230;-79
2020/12/07 05:26:42;;;;;;;26.75;14.13;;;4.80;92.90;;;;;;5017685;28;20220;-81
2020/12/07 05:29:13;;;;;;;25.13;14.40;;;4.90;92.90;;;;;;5017934;28;20205;-80
2020/12/07 05:31:40;;;;;;;22.95;13.55;;;4.90;92.80;;;;;;5008764;28;20248;-80
2020/12/07 05:34:07;;;;;;;24.80;15.43;;;4.80;92.90;;;;;;5015155;28;20234;-78
2020/12/07 05:36:33;;;;;;;25.40;14.35;;;4.80;92.80;;;;;;5017608;28;20266;-80
2020/12/07 05:39:00;;;;;;;23.85;15.02;;;4.80;93.30;;;;;;5019244;28;20260;-84
2020/12/07 05:41:30;;;;;;;26.45;14.55;;;4.80;93.30;;;;;;5020266;28;20307;-82
2020/12/07 05:43:58;;;;;;;23.83;14.25;;;4.80;93.30;;;;;;4998968;28;20221;-80
2020/12/07 05:46:27;;;;;;;25.90;15.27;;;4.80;93.30;;;;;;4996593;28;20213;-81
2020/12/07 05:48:55;;;;;;;27.70;15.45;;;4.80;93.30;;;;;;5000171;28;20225;-83
2020/12/07 05:51:24;;;;;;;25.73;14.70;;;4.80;93.40;;;;;;5000067;28;20193;-84
2020/12/07 05:53:51;;;;;;;25.95;15.20;;;4.80;93.70;;;;;;5017802;28;20221;-81
2020/12/07 05:56:18;;;;;;;23.40;14.45;;;4.80;93.30;;;;;;5020878;28;20194;-81
2020/12/07 05:58:56;;;;;;;27.80;14.38;;;4.80;93.40;;;;;;5019543;28;20201;-80
2020/12/07 06:01:27;;;;;;;25.90;14.88;;;4.80;93.40;;;;;;5015033;28;20284;-81
2020/12/07 06:03:54;;;;;;;28.60;16.17;;;4.80;93.60;;;;;;5017665;28;20212;-82
2020/12/07 06:06:30;;;;;;;29.30;16.27;;;4.80;93.90;;;;;;5020604;28;20189;-82
2020/12/07 06:08:58;;;;;;;25.98;16.33;;;4.80;94.10;;;;;;5019668;28;20193;-81
2020/12/07 06:11:26;;;;;;;28.48;15.63;;;4.70;94.10;;;;;;5016777;28;20236;-79
2020/12/07 06:13:53;;;;;;;24.30;14.32;;;4.80;94.40;;;;;;5015188;28;20221;-81
2020/12/07 06:16:19;;;;;;;27.00;16.25;;;4.80;94.50;;;;;;5014361;28;20213;-82
2020/12/07 06:18:47;;;;;;;28.55;17.70;;;4.80;94.30;;;;;;5012773;28;20209;-81
2020/12/07 06:21:19;;;;;;;26.45;16.70;;;4.80;94.20;;;;;;5011648;28;20229;-79
2020/12/07 06:23:47;;;;;;;25.40;15.32;;;4.80;94.30;;;;;;5009321;28;20246;-82
2020/12/07 06:26:16;;;;;;;27.67;16.42;;;4.80;94.30;;;;;;5017666;28;20454;-79
2020/12/07 06:28:44;;;;;;;28.30;16.67;;;4.80;94.30;;;;;;5010615;28;20216;-79
2020/12/07 06:31:12;;;;;;;25.83;15.70;;;4.80;94.40;;;;;;5007602;28;20220;-80
2020/12/07 06:33:44;;;;;;;25.50;16.33;;;4.80;94.50;;;;;;5012743;28;20222;-79
2020/12/07 06:36:27;;;;;;;32.05;16.60;;;4.80;94.50;;;;;;5014722;28;20240;-81
2020/12/07 06:38:56;;;;;;;28.92;17.50;;;4.80;94.40;;;;;;5016823;28;20181;-78
2020/12/07 06:41:31;;;;;;;31.58;17.75;;;4.80;94.50;;;;;;5017985;28;20220;-79
2020/12/07 06:43:59;;;;;;;28.73;17.85;;;4.80;94.60;;;;;;5016255;28;20229;-80
2020/12/07 06:46:53;;;;;;;31.88;17.30;;;4.70;94.60;;;;;;5015353;28;20205;-79
2020/12/07 06:49:26;;;;;;;27.65;17.55;;;4.70;94.70;;;;;;5007068;28;20204;-80
2020/12/07 06:52:04;;;;;;;31.90;18.95;;;4.80;95.00;;;;;;5009531;28;20194;-80
2020/12/07 06:57:23;;;;;;;38.78;20.10;;;4.70;94.90;;;;;;5018758;28;20181;-78
2020/12/07 07:00:02;;;;;;;30.17;18.35;;;4.60;95.10;;;;;;5018959;28;20224;-79
2020/12/07 07:02:30;;;;;;;30.60;18.20;;;4.60;95.30;;;;;;5018283;28;20228;-80
2020/12/07 07:04:57;;;;;;;30.48;19.00;;;4.70;95.40;;;;;;5017064;28;20225;-79
2020/12/07 07:07:26;;;;;;;30.95;18.40;;;4.60;95.40;;;;;;5010887;28;20240;-80
2020/12/07 07:09:54;;;;;;;27.85;18.10;;;4.70;95.40;;;;;;5015186;28;20220;-79
2020/12/07 07:12:21;;;;;;;30.10;18.70;;;4.70;95.20;;;;;;5017935;28;20218;-78
2020/12/07 07:14:53;;;;;;;32.75;17.85;;;4.70;95.10;;;;;;5008590;28;20205;-81
2020/12/07 07:17:20;;;;;;;31.85;18.48;;;4.80;95.20;;;;;;5002673;28;20204;-79
2020/12/07 07:19:46;;;;;;;27.38;17.10;;;4.70;95.00;;;;;;5003823;28;20284;-81
2020/12/07 07:22:14;;;;;;;26.50;16.85;;;4.80;95.10;;;;;;5003630;28;20257;-80
2020/12/07 07:24:48;;;;;;;25.05;16.98;;;4.80;95.10;;;;;;4984507;28;20209;-80
2020/12/07 07:29:59;;;;;;;31.90;17.83;;;4.80;94.60;;;;;;5017934;28;20203;-79
2020/12/07 07:32:29;;;;;;;29.45;17.90;;;4.80;94.70;;;;;;4987635;28;20238;-83
2020/12/07 07:34:56;;;;;;;28.02;18.77;;;4.80;94.60;;;;;;5002748;28;20205;-79
2020/12/07 07:37:22;;;;;;;28.08;17.55;;;4.80;94.50;;;;;;5007557;28;20240;-80
2020/12/07 07:39:58;;;;;;;30.80;18.25;;;4.90;94.50;;;;;;5008377;28;20689;-81
2020/12/07 07:42:25;;;;;;;28.48;18.95;;;4.90;94.40;;;;;;5007812;28;20752;-79
2020/12/07 07:44:52;;;;;;;28.73;17.30;;;5.00;94.30;;;;;;5007868;28;20239;-80
2020/12/07 07:47:23;;;;;;;26.15;17.85;;;5.00;94.40;;;;;;4997312;28;20257;-81
2020/12/07 07:53:13;;;;;;;25.52;18.45;;;5.10;93.60;;;;;;4985960;28;20240;-81
2020/12/07 08:15:22;;;;;;;30.98;17.27;;;5.80;88.20;;;;;;4995187;28;20208;-79
2020/12/07 08:17:49;;;;;;;28.65;17.58;;;5.70;87.20;;;;;;4995051;28;20239;-85
2020/12/07 08:20:17;;;;;;;26.05;16.33;;;5.60;86.60;;;;;;4996658;28;20293;-86
2020/12/07 08:22:55;;;;;;;27.45;17.33;;;5.60;86.80;;;;;;4995801;28;20257;-85
2020/12/07 08:25:40;;;;;;;27.50;16.77;;;5.40;86.80;;;;;;4995916;28;20225;-82
2020/12/07 08:28:23;;;;;;;26.88;18.08;;;5.40;87.60;;;;;;4996798;28;20189;-82
2020/12/07 08:31:01;;;;;;;29.20;17.30;;;5.40;87.70;;;;;;4996779;28;20190;-85
2020/12/07 08:33:28;;;;;;;28.60;17.83;;;5.50;88.30;;;;;;4996463;28;20226;-81
2020/12/07 08:35:55;;;;;;;28.27;18.08;;;5.50;88.70;;;;;;4997060;28;20206;-84
2020/12/07 08:38:29;;;;;;;32.42;18.60;;;5.60;88.30;;;;;;5004461;28;20193;-82
2020/12/07 08:41:28;;;;;;;27.58;17.65;;;5.60;87.60;;;;;;5017788;28;20666;-81
2020/12/07 08:43:57;;;;;;;25.50;17.38;;;5.60;87.30;;;;;;5018636;28;20209;-82
2020/12/07 08:46:25;;;;;;;19.85;13.32;;;5.60;86.70;;;;;;5018110;28;20217;-83
2020/12/07 08:48:53;;;;;;;25.50;16.95;;;5.60;86.00;;;;;;5018941;28;20205;-82
2020/12/07 08:51:21;;;;;;;28.90;18.10;;;5.70;86.10;;;;;;5018557;28;20199;-82
2020/12/07 08:53:48;;;;;;;23.08;16.77;;;5.70;85.40;;;;;;5017489;28;20221;-80
2020/12/07 08:56:14;;;;;;;26.45;17.42;;;5.80;84.80;;;;;;5017362;28;20667;-81
2020/12/07 08:58:41;;;;;;;24.65;16.60;;;5.90;84.90;;;;;;5008940;28;20203;-79
2020/12/07 09:01:09;;;;;;;23.95;16.45;;;5.90;83.80;;;;;;5001747;28;20248;-81
2020/12/07 09:03:37;;;;;;;28.98;16.58;;;5.90;83.40;;;;;;5001612;28;20233;-81
2020/12/07 09:06:04;;;;;;;22.33;16.23;;;6.00;84.20;;;;;;5001331;28;20208;-81
2020/12/07 09:08:31;;;;;;;26.17;16.85;;;6.00;82.80;;;;;;5001967;28;20219;-80
2020/12/07 09:10:58;;;;;;;22.73;16.23;;;5.90;82.20;;;;;;4999941;28;20230;-81
2020/12/07 09:13:24;;;;;;;23.05;16.88;;;6.00;82.30;;;;;;5000401;28;20755;-80
2020/12/07 09:15:57;;;;;;;22.70;16.02;;;6.00;82.30;;;;;;5000738;28;20213;-82
2020/12/07 09:18:24;;;;;;;27.45;16.67;;;5.90;82.20;;;;;;5010080;28;20229;-80
2020/12/07 09:20:51;;;;;;;23.85;16.95;;;6.00;82.30;;;;;;5010193;28;20230;-82
2020/12/07 09:23:17;;;;;;;26.13;16.70;;;6.00;81.40;;;;;;4997497;28;20229;-83
2020/12/07 09:25:44;;;;;;;25.15;16.08;;;6.00;82.30;;;;;;4992719;28;20210;-84
2020/12/07 09:28:10;;;;;;;20.70;15.25;;;6.10;81.10;;;;;;4995418;28;20194;-82
2020/12/07 09:30:37;;;;;;;24.42;15.98;;;6.20;80.40;;;;;;4987322;28;20222;-79
2020/12/07 09:33:04;;;;;;;21.33;14.30;;;6.20;79.80;;;;;;4980984;28;20270;-81
2020/12/07 09:35:33;;;;;;;24.95;16.08;;;6.20;79.10;;;;;;4983320;28;20210;-81
2020/12/07 09:38:00;;;;;;;20.02;14.02;;;6.20;78.30;;;;;;4989073;28;20221;-83
2020/12/07 09:40:27;;;;;;;19.42;13.90;;;6.30;78.30;;;;;;4997493;28;20281;-81
2020/12/07 09:42:54;;;;;;;22.23;15.05;;;6.30;78.30;;;;;;4995263;28;20231;-80
2020/12/07 09:45:20;;;;;;;18.23;13.93;;;6.50;77.60;;;;;;4994331;28;20221;-80
2020/12/07 09:47:47;;;;;;;20.50;14.70;;;6.70;77.20;;;;;;4984070;28;20634;-81
2020/12/07 09:50:14;;;;;;;17.75;12.85;;;6.80;75.20;;;;;;4979790;28;20219;-84
2020/12/07 09:52:44;;;;;;;18.02;13.90;;;6.90;74.60;;;;;;4980021;28;20246;-80
2020/12/07 09:55:10;;;;;;;17.80;13.57;;;7.20;73.20;;;;;;4985557;28;20214;-79
2020/12/07 09:57:37;;;;;;;20.70;13.73;;;7.30;71.50;;;;;;4990958;28;20239;-81
2020/12/07 10:00:04;;;;;;;15.07;11.88;;;7.40;70.70;;;;;;4993327;28;20648;-78
2020/12/07 10:02:31;;;;;;;16.35;11.23;;;7.30;68.90;;;;;;4982411;28;20262;-77
2020/12/07 10:04:58;;;;;;;18.35;12.02;;;7.30;68.60;;;;;;4983708;28;20203;-81
2020/12/07 10:07:25;;;;;;;15.50;12.20;;;7.20;67.80;;;;;;4985039;28;20212;-78
2020/12/07 10:09:53;;;;;;;16.58;11.25;;;7.30;67.50;;;;;;4980701;28;20222;-78
2020/12/07 10:12:19;;;;;;;20.35;11.18;;;7.40;66.80;;;;;;4981066;28;20225;-79
2020/12/07 10:14:46;;;;;;;13.25;10.15;;;7.30;66.20;;;;;;4980938;28;20238;-78
2020/12/07 10:17:12;;;;;;;13.88;10.00;;;7.50;67.20;;;;;;4979944;28;20211;-79
2020/12/07 10:19:39;;;;;;;16.73;11.23;;;7.70;66.00;;;;;;4980484;28;20210;-81
2020/12/07 10:22:06;;;;;;;10.70;9.30;;;7.80;63.10;;;;;;4983605;28;20230;-79
2020/12/07 10:24:32;;;;;;;13.10;9.00;;;7.80;62.10;;;;;;4988976;28;20242;-79
2020/12/07 10:27:00;;;;;;;11.70;9.30;;;7.90;61.90;;;;;;4989389;28;20718;-78
2020/12/07 10:29:27;;;;;;;10.85;8.30;;;8.00;61.30;;;;;;4991573;28;20240;-82
2020/12/07 10:31:55;;;;;;;11.95;9.10;;;8.00;60.70;;;;;;5010853;28;20237;-80
2020/12/07 10:34:22;;;;;;;12.80;9.60;;;8.10;61.00;;;;;;5004177;28;20871;-79
2020/12/07 10:36:49;;;;;;;10.68;8.40;;;8.00;60.90;;;;;;5002682;28;20228;-81
2020/12/07 10:39:15;;;;;;;12.70;9.30;;;8.10;60.10;;;;;;5004361;28;20278;-79
2020/12/07 10:41:42;;;;;;;11.45;8.57;;;8.20;60.00;;;;;;5002999;28;20293;-78
2020/12/07 10:44:13;;;;;;;10.40;8.45;;;8.00;60.00;;;;;;5001395;28;20225;-79
2020/12/07 10:46:39;;;;;;;12.75;7.93;;;8.20;60.30;;;;;;5002187;28;20188;-79
2020/12/07 10:49:06;;;;;;;13.13;8.90;;;8.30;59.50;;;;;;5002249;28;20238;-78
2020/12/07 10:51:32;;;;;;;12.63;8.80;;;8.30;58.20;;;;;;4998857;28;20242;-80
2020/12/07 10:53:59;;;;;;;10.80;7.55;;;8.00;57.90;;;;;;5000411;28;20230;-79
2020/12/07 10:56:26;;;;;;;9.85;7.90;;;7.90;59.70;;;;;;5007701;28;20222;-79
2020/12/07 10:58:53;;;;;;;11.23;8.30;;;8.00;60.00;;;;;;5010211;28;20212;-80
2020/12/07 11:01:20;;;;;;;12.88;7.97;;;7.90;58.90;;;;;;5011292;28;20250;-80
2020/12/07 11:03:46;;;;;;;10.15;7.75;;;7.80;59.30;;;;;;5006700;28;20246;-81
2020/12/07 11:06:16;;;;;;;11.80;8.63;;;7.60;59.40;;;;;;5005817;28;20212;-82
2020/12/07 11:08:51;;;;;;;10.95;8.88;;;7.60;60.40;;;;;;5004132;28;20230;-81
2020/12/07 11:11:19;;;;;;;13.05;8.70;;;7.60;62.00;;;;;;5003672;28;20198;-80
2020/12/07 11:13:46;;;;;;;10.82;8.38;;;7.40;60.10;;;;;;5004355;28;20261;-83
2020/12/07 11:16:13;;;;;;;12.73;8.32;;;7.30;61.80;;;;;;5001847;28;20225;-78
2020/12/07 11:18:41;;;;;;;11.82;8.13;;;7.20;61.70;;;;;;5003298;28;20267;-82
2020/12/07 11:21:15;;;;;;;10.18;7.68;;;7.00;61.60;;;;;;5003540;28;20222;-82
2020/12/07 11:23:43;;;;;;;11.50;8.07;;;7.00;61.60;;;;;;5007001;28;20254;-80
2020/12/07 11:26:10;;;;;;;10.68;7.63;;;6.90;60.80;;;;;;5011101;28;20215;-81
2020/12/07 11:28:38;;;;;;;10.93;8.45;;;7.10;60.20;;;;;;5012429;28;20219;-78
2020/12/07 11:31:05;;;;;;;10.55;7.53;;;7.20;60.00;;;;;;5011851;28;20302;-81
2020/12/07 11:33:32;;;;;;;9.77;8.13;;;7.30;59.40;;;;;;5010298;28;20226;-81
2020/12/07 11:36:00;;;;;;;10.50;7.82;;;7.30;59.00;;;;;;5008949;28;20211;-81
2020/12/07 11:38:30;;;;;;;11.93;7.53;;;7.20;59.20;;;;;;5007573;28;20302;-79
2020/12/07 11:43:47;;;;;;;16.20;9.63;;;7.20;58.90;;;;;;4994398;28;20233;-79
2020/12/07 11:46:20;;;;;;;14.38;9.15;;;7.20;59.40;;;;;;5000545;28;20213;-81
2020/12/07 11:48:46;;;;;;;10.70;7.80;;;7.20;59.50;;;;;;4999688;28;20625;-79
2020/12/07 11:51:14;;;;;;;11.10;7.80;;;7.20;58.90;;;;;;4998869;28;20265;-79
2020/12/07 11:53:40;;;;;;;10.75;7.57;;;7.20;58.10;;;;;;4996455;28;20264;-79
2020/12/07 11:56:07;;;;;;;12.05;8.50;;;7.20;58.70;;;;;;4997924;28;20218;-79
2020/12/07 11:58:33;;;;;;;13.00;7.93;;;7.20;58.30;;;;;;4997472;28;20288;-77
2020/12/07 12:01:00;;;;;;;12.00;8.52;;;7.30;58.50;;;;;;4997802;28;20233;-78
2020/12/07 12:03:26;;;;;;;15.75;8.40;;;7.30;57.60;;;;;;4998280;28;20292;-80
2020/12/07 12:05:53;;;;;;;11.10;7.68;;;7.30;57.30;;;;;;4999201;28;20237;-79
2020/12/07 12:08:20;;;;;;;11.13;8.00;;;7.10;57.40;;;;;;5005299;28;20267;-81
2020/12/07 12:10:50;;;;;;;19.05;8.85;;;7.00;58.90;;;;;;5010715;28;20241;-82
2020/12/07 12:13:17;;;;;;;15.85;9.15;;;6.80;60.10;;;;;;5009166;28;20268;-79
2020/12/07 12:15:44;;;;;;;13.05;9.05;;;6.80;60.00;;;;;;5006665;28;20657;-78
2020/12/07 12:18:11;;;;;;;16.13;9.43;;;6.60;61.20;;;;;;5005010;28;20209;-79
2020/12/07 12:20:42;;;;;;;13.60;9.13;;;6.60;61.20;;;;;;5006038;28;20226;-78
2020/12/07 12:23:08;;;;;;;13.27;9.43;;;6.60;61.50;;;;;;5013355;28;20473;-80
2020/12/07 12:25:39;;;;;;;15.60;9.65;;;6.60;62.30;;;;;;5006197;28;20207;-78
2020/12/07 12:28:06;;;;;;;16.15;10.15;;;6.50;62.00;;;;;;5006664;28;20240;-80
2020/12/07 12:30:33;;;;;;;16.33;10.50;;;6.50;63.10;;;;;;5004542;28;20240;-77
2020/12/07 12:32:59;;;;;;;14.38;10.00;;;6.60;63.40;;;;;;5009224;28;20238;-78
2020/12/07 12:35:26;;;;;;;12.07;9.55;;;6.80;62.90;;;;;;5008771;28;20602;-79
2020/12/07 12:37:52;;;;;;;16.85;10.23;;;6.80;62.00;;;;;;5005779;28;20202;-79
2020/12/07 12:40:18;;;;;;;15.00;9.70;;;6.70;62.00;;;;;;5003853;28;20442;-80
2020/12/07 12:42:46;;;;;;;15.57;10.60;;;6.70;62.60;;;;;;5004192;28;20511;-80
2020/12/07 12:45:12;;;;;;;23.05;10.68;;;6.60;62.60;;;;;;5005508;28;20210;-79
2020/12/07 12:47:38;;;;;;;15.13;9.63;;;6.60;63.50;;;;;;4990404;28;20194;-79
2020/12/07 12:50:05;;;;;;;15.30;9.95;;;6.60;63.30;;;;;;5003236;28;20217;-79
2020/12/07 12:52:32;;;;;;;13.48;9.23;;;6.60;63.40;;;;;;5005563;28;20316;-78
2020/12/07 12:54:58;;;;;;;16.25;9.93;;;6.60;63.80;;;;;;5009037;28;20213;-77
2020/12/07 12:57:26;;;;;;;14.13;8.70;;;6.60;63.40;;;;;;5011676;28;20228;-78
2020/12/07 12:59:54;;;;;;;13.23;8.70;;;6.60;63.30;;;;;;5006950;28;20241;-78
2020/12/07 13:02:21;;;;;;;13.82;10.25;;;6.60;63.50;;;;;;5012549;28;20237;-79
2020/12/07 13:04:47;;;;;;;15.73;9.93;;;6.60;63.10;;;;;;5013320;28;20240;-77
2020/12/07 13:07:14;;;;;;;15.10;8.82;;;6.60;62.70;;;;;;5007490;28;20210;-78
2020/12/07 13:09:40;;;;;;;14.07;9.38;;;6.50;62.70;;;;;;4985097;28;20214;-79
2020/12/07 13:12:06;;;;;;;16.95;10.35;;;6.50;63.10;;;;;;4985786;28;20222;-80
2020/12/07 13:14:33;;;;;;;13.07;9.65;;;6.60;63.20;;;;;;4999666;28;20213;-80